sensor_id;sensor_type;location;lat;lon;timestamp;pressure;altitude;pressure_sealevel;temperature;humidity
49709;BME280;35601;55.902;13.606;2023-12-29T00:00:28;99002.20;;;2.63;100.00
49709;BME280;35601;55.902;13.606;2023-12-29T00:02:53;99002.51;;;2.77;100.00
49709;BME280;35601;55.902;13.606;2023-12-29T00:05:19;99000.55;;;2.68;100.00
49709;BME280;35601;55.902;13.606;2023-12-29T00:07:44;98993.50;;;2.78;100.00
49709;BME280;35601;55.902;13.606;2023-12-29T00:10:10;99000.66;;;2.56;100.00
49709;BME280;35601;55.902;13.606;2023-12-29T00:12:36;98994.52;;;2.78;100.00
49709;BME280;35601;55.902;13.606;2023-12-29T00:15:01;98988.74;;;2.53;100.00
49709;BME280;35601;55.902;13.606;2023-12-29T00:17:26;98985.75;;;2.60;100.00
49709;BME280;35601;55.902;13.606;2023-12-29T00:19:52;98983.38;;;2.53;100.00
49709;BME280;35601;55.902;13.606;2023-12-29T00:22:17;98983.38;;;2.76;100.00
49709;BME280;35601;55.902;13.606;2023-12-29T00:24:43;98967.46;;;2.80;100.00
49709;BME280;35601;55.902;13.606;2023-12-29T00:27:08;98963.48;;;2.69;100.00
49709;BME280;35601;55.902;13.606;2023-12-29T00:29:33;98965.44;;;2.51;100.00
49709;BME280;35601;55.902;13.606;2023-12-29T00:31:59;98962.85;;;2.99;100.00
49709;BME280;35601;55.902;13.606;2023-12-29T00:34:24;98958.04;;;2.74;100.00
49709;BME280;35601;55.902;13.606;2023-12-29T00:36:50;98957.29;;;2.71;100.00
49709;BME280;35601;55.902;13.606;2023-12-29T00:39:15;98945.61;;;2.50;100.00
49709;BME280;35601;55.902;13.606;2023-12-29T00:41:41;98937.81;;;2.65;100.00
49709;BME280;35601;55.902;13.606;2023-12-29T00:44:07;98939.98;;;2.73;100.00
49709;BME280;35601;55.902;13.606;2023-12-29T00:46:32;98937.89;;;2.42;100.00
49709;BME280;35601;55.902;13.606;2023-12-29T00:48:58;98924.33;;;2.60;100.00
49709;BME280;35601;55.902;13.606;2023-12-29T00:51:23;98913.39;;;3.08;100.00
49709;BME280;35601;55.902;13.606;2023-12-29T00:53:49;98906.59;;;2.80;100.00
49709;BME280;35601;55.902;13.606;2023-12-29T00:56:15;98899.49;;;3.08;100.00
49709;BME280;35601;55.902;13.606;2023-12-29T00:58:40;98896.51;;;2.74;100.00
49709;BME280;35601;55.902;13.606;2023-12-29T01:01:07;98901.46;;;3.01;100.00
49709;BME280;35601;55.902;13.606;2023-12-29T01:03:31;98902.67;;;2.91;100.00
49709;BME280;35601;55.902;13.606;2023-12-29T01:05:57;98903.40;;;2.49;100.00
49709;BME280;35601;55.902;13.606;2023-12-29T01:08:23;98909.17;;;2.59;100.00
49709;BME280;35601;55.902;13.606;2023-12-29T01:10:48;98902.68;;;2.91;100.00
49709;BME280;35601;55.902;13.606;2023-12-29T01:13:13;98905.96;;;2.93;100.00
49709;BME280;35601;55.902;13.606;2023-12-29T01:15:38;98908.12;;;2.97;100.00
49709;BME280;35601;55.902;13.606;2023-12-29T01:18:04;98906.48;;;2.80;100.00
49709;BME280;35601;55.902;13.606;2023-12-29T01:20:29;98901.69;;;2.50;100.00
49709;BME280;35601;55.902;13.606;2023-12-29T01:22:54;98897.93;;;2.74;100.00
49709;BME280;35601;55.902;13.606;2023-12-29T01:25:20;98898.77;;;2.87;100.00
49709;BME280;35601;55.902;13.606;2023-12-29T01:27:46;98890.31;;;3.11;100.00
49709;BME280;35601;55.902;13.606;2023-12-29T01:30:11;98888.61;;;2.85;100.00
49709;BME280;35601;55.902;13.606;2023-12-29T01:32:36;98891.92;;;2.92;100.00
49709;BME280;35601;55.902;13.606;2023-12-29T01:35:01;98888.37;;;2.70;100.00
49709;BME280;35601;55.902;13.606;2023-12-29T01:37:27;98882.10;;;2.77;100.00
49709;BME280;35601;55.902;13.606;2023-12-29T01:39:52;98882.81;;;2.83;100.00
49709;BME280;35601;55.902;13.606;2023-12-29T01:42:18;98876.01;;;3.26;100.00
49709;BME280;35601;55.902;13.606;2023-12-29T01:44:43;98872.14;;;3.01;100.00
49709;BME280;35601;55.902;13.606;2023-12-29T01:47:13;98872.63;;;2.88;100.00
49709;BME280;35601;55.902;13.606;2023-12-29T01:49:34;98869.70;;;2.94;100.00
49709;BME280;35601;55.902;13.606;2023-12-29T01:52:00;98861.69;;;2.75;100.00
49709;BME280;35601;55.902;13.606;2023-12-29T01:54:29;98872.14;;;2.85;100.00
49709;BME280;35601;55.902;13.606;2023-12-29T01:56:52;98873.75;;;2.91;100.00
49709;BME280;35601;55.902;13.606;2023-12-29T01:59:16;98864.73;;;2.74;100.00
49709;BME280;35601;55.902;13.606;2023-12-29T02:01:41;98861.14;;;2.98;100.00
49709;BME280;35601;55.902;13.606;2023-12-29T02:04:07;98860.30;;;2.93;100.00
49709;BME280;35601;55.902;13.606;2023-12-29T02:06:32;98861.26;;;3.16;100.00
49709;BME280;35601;55.902;13.606;2023-12-29T02:08:58;98858.26;;;3.19;100.00
49709;BME280;35601;55.902;13.606;2023-12-29T02:11:22;98860.65;;;3.19;100.00
49709;BME280;35601;55.902;13.606;2023-12-29T02:13:48;98860.20;;;3.19;100.00
49709;BME280;35601;55.902;13.606;2023-12-29T02:16:17;98861.32;;;3.42;100.00
49709;BME280;35601;55.902;13.606;2023-12-29T02:18:40;98856.62;;;3.35;98.52
49709;BME280;35601;55.902;13.606;2023-12-29T02:21:04;98851.78;;;3.24;97.50
49709;BME280;35601;55.902;13.606;2023-12-29T02:23:29;98852.79;;;3.06;96.94
49709;BME280;35601;55.902;13.606;2023-12-29T02:25:58;98853.07;;;3.35;95.75
49709;BME280;35601;55.902;13.606;2023-12-29T02:28:24;98849.12;;;3.04;95.11
49709;BME280;35601;55.902;13.606;2023-12-29T02:30:49;98845.14;;;2.88;94.80
49709;BME280;35601;55.902;13.606;2023-12-29T02:33:14;98845.58;;;3.10;94.66
49709;BME280;35601;55.902;13.606;2023-12-29T02:35:39;98843.05;;;3.42;93.50
49709;BME280;35601;55.902;13.606;2023-12-29T02:38:01;98845.35;;;3.42;92.94
49709;BME280;35601;55.902;13.606;2023-12-29T02:40:26;98842.07;;;3.46;92.45
49709;BME280;35601;55.902;13.606;2023-12-29T02:42:51;98840.28;;;3.24;92.77
49709;BME280;35601;55.902;13.606;2023-12-29T02:45:18;98832.68;;;3.14;92.14
49709;BME280;35601;55.902;13.606;2023-12-29T02:47:43;98830.71;;;3.23;91.92
49709;BME280;35601;55.902;13.606;2023-12-29T02:50:09;98833.03;;;3.28;91.49
49709;BME280;35601;55.902;13.606;2023-12-29T02:52:33;98831.18;;;3.33;91.46
49709;BME280;35601;55.902;13.606;2023-12-29T02:54:59;98828.67;;;2.99;91.68
49709;BME280;35601;55.902;13.606;2023-12-29T02:57:24;98829.41;;;3.01;91.99
49709;BME280;35601;55.902;13.606;2023-12-29T02:59:49;98823.90;;;3.14;92.17
49709;BME280;35601;55.902;13.606;2023-12-29T03:02:15;98833.35;;;3.30;92.11
49709;BME280;35601;55.902;13.606;2023-12-29T03:04:40;98835.58;;;3.40;92.46
49709;BME280;35601;55.902;13.606;2023-12-29T03:07:05;98840.05;;;3.58;91.20
49709;BME280;35601;55.902;13.606;2023-12-29T03:09:31;98838.37;;;3.36;90.86
49709;BME280;35601;55.902;13.606;2023-12-29T03:11:56;98836.28;;;3.60;90.20
49709;BME280;35601;55.902;13.606;2023-12-29T03:14:21;98833.53;;;3.84;89.98
49709;BME280;35601;55.902;13.606;2023-12-29T03:16:46;98836.55;;;3.69;90.44
49709;BME280;35601;55.902;13.606;2023-12-29T03:19:11;98840.57;;;3.81;90.13
49709;BME280;35601;55.902;13.606;2023-12-29T03:21:37;98837.63;;;3.65;90.30
49709;BME280;35601;55.902;13.606;2023-12-29T03:24:02;98830.82;;;3.71;90.51
49709;BME280;35601;55.902;13.606;2023-12-29T03:26:27;98830.99;;;3.62;90.09
49709;BME280;35601;55.902;13.606;2023-12-29T03:28:54;98830.32;;;3.94;90.10
49709;BME280;35601;55.902;13.606;2023-12-29T03:31:18;98829.82;;;2.36;90.44
49709;BME280;35601;55.902;13.606;2023-12-29T03:33:44;98830.90;;;3.46;89.54
49709;BME280;35601;55.902;13.606;2023-12-29T03:36:09;98832.73;;;3.56;90.50
49709;BME280;35601;55.902;13.606;2023-12-29T03:38:34;98828.40;;;3.69;89.91
49709;BME280;35601;55.902;13.606;2023-12-29T03:40:59;98816.27;;;3.60;89.70
49709;BME280;35601;55.902;13.606;2023-12-29T03:43:24;98809.63;;;3.56;89.15
49709;BME280;35601;55.902;13.606;2023-12-29T03:45:51;98816.60;;;3.61;89.45
49709;BME280;35601;55.902;13.606;2023-12-29T03:48:15;98812.98;;;3.32;89.97
49709;BME280;35601;55.902;13.606;2023-12-29T03:50:40;98802.32;;;3.99;89.36
49709;BME280;35601;55.902;13.606;2023-12-29T03:53:05;98802.25;;;3.39;89.46
49709;BME280;35601;55.902;13.606;2023-12-29T03:55:31;98803.97;;;3.38;89.44
49709;BME280;35601;55.902;13.606;2023-12-29T03:57:57;98808.52;;;3.58;90.44
49709;BME280;35601;55.902;13.606;2023-12-29T04:00:22;98810.43;;;3.33;90.32
49709;BME280;35601;55.902;13.606;2023-12-29T04:02:47;98812.35;;;3.43;90.69
49709;BME280;35601;55.902;13.606;2023-12-29T04:05:12;98814.50;;;3.30;91.65
49709;BME280;35601;55.902;13.606;2023-12-29T04:07:39;98807.05;;;3.27;91.87
49709;BME280;35601;55.902;13.606;2023-12-29T04:10:03;98804.23;;;3.25;91.88
49709;BME280;35601;55.902;13.606;2023-12-29T04:12:28;98798.26;;;2.93;92.13
49709;BME280;35601;55.902;13.606;2023-12-29T04:14:53;98794.92;;;3.25;91.72
49709;BME280;35601;55.902;13.606;2023-12-29T04:17:18;98786.79;;;3.19;91.48
49709;BME280;35601;55.902;13.606;2023-12-29T04:19:44;98785.57;;;3.03;92.27
49709;BME280;35601;55.902;13.606;2023-12-29T04:22:09;98796.60;;;3.10;93.35
49709;BME280;35601;55.902;13.606;2023-12-29T04:24:36;98800.66;;;2.80;93.81
49709;BME280;35601;55.902;13.606;2023-12-29T04:27:00;98796.55;;;2.96;93.52
49709;BME280;35601;55.902;13.606;2023-12-29T04:29:25;98795.73;;;2.94;93.48
49709;BME280;35601;55.902;13.606;2023-12-29T04:31:50;98785.13;;;3.07;94.26
49709;BME280;35601;55.902;13.606;2023-12-29T04:34:15;98782.63;;;2.74;94.61
49709;BME280;35601;55.902;13.606;2023-12-29T04:36:41;98781.72;;;2.83;95.15
49709;BME280;35601;55.902;13.606;2023-12-29T04:39:07;98775.60;;;3.12;94.86
49709;BME280;35601;55.902;13.606;2023-12-29T04:41:32;98773.90;;;2.91;94.62
49709;BME280;35601;55.902;13.606;2023-12-29T04:43:57;98776.74;;;3.07;94.08
49709;BME280;35601;55.902;13.606;2023-12-29T04:46:23;98775.72;;;2.99;94.49
49709;BME280;35601;55.902;13.606;2023-12-29T04:48:48;98778.64;;;2.83;95.36
49709;BME280;35601;55.902;13.606;2023-12-29T04:51:13;98775.73;;;2.81;96.10
49709;BME280;35601;55.902;13.606;2023-12-29T04:53:38;98774.76;;;2.84;95.69
49709;BME280;35601;55.902;13.606;2023-12-29T04:56:04;98778.67;;;2.99;94.96
49709;BME280;35601;55.902;13.606;2023-12-29T04:58:29;98771.83;;;3.14;94.52
49709;BME280;35601;55.902;13.606;2023-12-29T05:00:54;98767.14;;;3.15;94.62
49709;BME280;35601;55.902;13.606;2023-12-29T05:03:19;98755.72;;;2.17;95.02
49709;BME280;35601;55.902;13.606;2023-12-29T05:05:45;98756.80;;;3.03;94.35
49709;BME280;35601;55.902;13.606;2023-12-29T05:08:10;98758.69;;;3.01;94.71
49709;BME280;35601;55.902;13.606;2023-12-29T05:10:35;98751.93;;;3.13;95.74
49709;BME280;35601;55.902;13.606;2023-12-29T05:13:00;98748.06;;;3.02;95.14
49709;BME280;35601;55.902;13.606;2023-12-29T05:15:26;98742.42;;;3.23;94.63
49709;BME280;35601;55.902;13.606;2023-12-29T05:17:51;98733.50;;;3.37;93.59
49709;BME280;35601;55.902;13.606;2023-12-29T05:20:16;98732.16;;;3.38;93.49
49709;BME280;35601;55.902;13.606;2023-12-29T05:22:41;98732.97;;;3.40;93.28
49709;BME280;35601;55.902;13.606;2023-12-29T05:25:07;98737.85;;;3.48;92.89
49709;BME280;35601;55.902;13.606;2023-12-29T05:27:32;98738.29;;;3.38;93.31
49709;BME280;35601;55.902;13.606;2023-12-29T05:29:57;98733.61;;;3.60;93.22
49709;BME280;35601;55.902;13.606;2023-12-29T05:32:23;98737.53;;;3.39;94.50
49709;BME280;35601;55.902;13.606;2023-12-29T05:34:48;98742.59;;;3.30;94.41
49709;BME280;35601;55.902;13.606;2023-12-29T05:37:13;98733.73;;;3.51;94.44
49709;BME280;35601;55.902;13.606;2023-12-29T05:39:41;98725.23;;;3.19;94.52
49709;BME280;35601;55.902;13.606;2023-12-29T05:42:04;98716.82;;;3.03;95.09
49709;BME280;35601;55.902;13.606;2023-12-29T05:44:29;98703.00;;;2.84;97.30
49709;BME280;35601;55.902;13.606;2023-12-29T05:46:55;98709.05;;;2.66;98.11
49709;BME280;35601;55.902;13.606;2023-12-29T05:49:24;98720.55;;;2.51;100.00
49709;BME280;35601;55.902;13.606;2023-12-29T05:51:45;98716.77;;;2.71;100.00
49709;BME280;35601;55.902;13.606;2023-12-29T05:54:11;98716.35;;;2.81;100.00
49709;BME280;35601;55.902;13.606;2023-12-29T05:56:36;98712.31;;;2.86;99.81
49709;BME280;35601;55.902;13.606;2023-12-29T05:59:02;98709.98;;;2.60;100.00
49709;BME280;35601;55.902;13.606;2023-12-29T06:01:27;98702.67;;;2.36;100.00
49709;BME280;35601;55.902;13.606;2023-12-29T06:03:52;98706.23;;;2.57;100.00
49709;BME280;35601;55.902;13.606;2023-12-29T06:06:18;98705.78;;;2.60;100.00
49709;BME280;35601;55.902;13.606;2023-12-29T06:08:43;98705.52;;;2.56;100.00
49709;BME280;35601;55.902;13.606;2023-12-29T06:11:08;98700.54;;;2.71;100.00
49709;BME280;35601;55.902;13.606;2023-12-29T06:13:33;98707.12;;;2.50;100.00
49709;BME280;35601;55.902;13.606;2023-12-29T06:15:59;98709.70;;;2.43;100.00
49709;BME280;35601;55.902;13.606;2023-12-29T06:18:25;98707.42;;;2.11;100.00
49709;BME280;35601;55.902;13.606;2023-12-29T06:20:50;98710.33;;;2.13;100.00
49709;BME280;35601;55.902;13.606;2023-12-29T06:23:15;98709.40;;;2.46;100.00
49709;BME280;35601;55.902;13.606;2023-12-29T06:25:40;98701.77;;;1.91;100.00
49709;BME280;35601;55.902;13.606;2023-12-29T06:28:06;98695.59;;;2.15;100.00
49709;BME280;35601;55.902;13.606;2023-12-29T06:30:31;98690.13;;;1.93;100.00
49709;BME280;35601;55.902;13.606;2023-12-29T06:32:56;98690.09;;;2.17;100.00
49709;BME280;35601;55.902;13.606;2023-12-29T06:35:22;98687.31;;;2.08;100.00
49709;BME280;35601;55.902;13.606;2023-12-29T06:37:47;98683.17;;;2.06;100.00
49709;BME280;35601;55.902;13.606;2023-12-29T06:40:12;98684.39;;;2.11;100.00
49709;BME280;35601;55.902;13.606;2023-12-29T06:42:38;98683.57;;;2.26;100.00
49709;BME280;35601;55.902;13.606;2023-12-29T06:45:05;98687.27;;;2.06;100.00
49709;BME280;35601;55.902;13.606;2023-12-29T06:47:29;98692.21;;;2.35;100.00
49709;BME280;35601;55.902;13.606;2023-12-29T06:49:54;98693.30;;;2.32;100.00
49709;BME280;35601;55.902;13.606;2023-12-29T06:52:19;98719.98;;;2.56;100.00
49709;BME280;35601;55.902;13.606;2023-12-29T06:54:45;98732.06;;;2.85;100.00
49709;BME280;35601;55.902;13.606;2023-12-29T06:57:10;98731.65;;;2.86;100.00
49709;BME280;35601;55.902;13.606;2023-12-29T06:59:35;98693.09;;;2.52;100.00
49709;BME280;35601;55.902;13.606;2023-12-29T07:02:00;98707.39;;;2.64;99.48
49709;BME280;35601;55.902;13.606;2023-12-29T07:04:25;98710.52;;;2.75;99.98
49709;BME280;35601;55.902;13.606;2023-12-29T07:06:51;98714.61;;;2.79;98.57
49709;BME280;35601;55.902;13.606;2023-12-29T07:09:16;98710.84;;;3.06;98.14
49709;BME280;35601;55.902;13.606;2023-12-29T07:11:42;98710.17;;;3.11;97.26
49709;BME280;35601;55.902;13.606;2023-12-29T07:14:07;98708.23;;;3.00;96.68
49709;BME280;35601;55.902;13.606;2023-12-29T07:16:32;98699.66;;;3.21;95.69
49709;BME280;35601;55.902;13.606;2023-12-29T07:18:57;98708.33;;;3.22;95.29
49709;BME280;35601;55.902;13.606;2023-12-29T07:21:22;98710.37;;;2.88;95.02
49709;BME280;35601;55.902;13.606;2023-12-29T07:23:48;98706.66;;;3.08;94.59
49709;BME280;35601;55.902;13.606;2023-12-29T07:26:13;98702.96;;;3.25;93.46
49709;BME280;35601;55.902;13.606;2023-12-29T07:28:38;98704.32;;;2.96;92.56
49709;BME280;35601;55.902;13.606;2023-12-29T07:31:04;98697.45;;;3.15;91.91
49709;BME280;35601;55.902;13.606;2023-12-29T07:33:30;98700.49;;;3.29;91.36
49709;BME280;35601;55.902;13.606;2023-12-29T07:35:54;98696.86;;;3.09;90.39
49709;BME280;35601;55.902;13.606;2023-12-29T07:38:19;98698.54;;;3.23;90.14
49709;BME280;35601;55.902;13.606;2023-12-29T07:40:45;98702.79;;;3.36;90.26
49709;BME280;35601;55.902;13.606;2023-12-29T07:43:11;98700.16;;;3.43;90.39
49709;BME280;35601;55.902;13.606;2023-12-29T07:45:36;98702.37;;;3.54;90.55
49709;BME280;35601;55.902;13.606;2023-12-29T07:48:02;98705.16;;;3.49;90.89
49709;BME280;35601;55.902;13.606;2023-12-29T07:50:26;98703.28;;;3.36;91.67
49709;BME280;35601;55.902;13.606;2023-12-29T07:52:52;98703.84;;;3.29;93.43
49709;BME280;35601;55.902;13.606;2023-12-29T07:55:17;98710.03;;;2.94;94.21
49709;BME280;35601;55.902;13.606;2023-12-29T07:57:43;98721.24;;;3.07;95.55
49709;BME280;35601;55.902;13.606;2023-12-29T08:00:09;98714.64;;;2.93;96.01
49709;BME280;35601;55.902;13.606;2023-12-29T08:02:34;98715.52;;;3.01;96.36
49709;BME280;35601;55.902;13.606;2023-12-29T08:04:59;98725.73;;;3.35;96.09
49709;BME280;35601;55.902;13.606;2023-12-29T08:07:24;98728.02;;;2.99;96.94
49709;BME280;35601;55.902;13.606;2023-12-29T08:09:49;98740.61;;;2.68;97.29
49709;BME280;35601;55.902;13.606;2023-12-29T08:12:15;98748.07;;;2.86;98.22
49709;BME280;35601;55.902;13.606;2023-12-29T08:14:41;98742.67;;;2.53;98.24
49709;BME280;35601;55.902;13.606;2023-12-29T08:17:06;98728.07;;;2.74;97.33
49709;BME280;35601;55.902;13.606;2023-12-29T08:19:32;98727.52;;;3.39;96.60
49709;BME280;35601;55.902;13.606;2023-12-29T08:21:57;98722.70;;;3.01;96.42
49709;BME280;35601;55.902;13.606;2023-12-29T08:24:23;98729.68;;;2.91;95.42
49709;BME280;35601;55.902;13.606;2023-12-29T08:26:48;98731.52;;;3.20;95.18
49709;BME280;35601;55.902;13.606;2023-12-29T08:29:14;98719.61;;;3.44;94.65
49709;BME280;35601;55.902;13.606;2023-12-29T08:31:39;98721.07;;;3.30;94.09
49709;BME280;35601;55.902;13.606;2023-12-29T08:34:05;98727.15;;;3.47;93.55
49709;BME280;35601;55.902;13.606;2023-12-29T08:36:30;98721.36;;;3.51;93.85
49709;BME280;35601;55.902;13.606;2023-12-29T08:38:56;98719.96;;;3.58;93.80
49709;BME280;35601;55.902;13.606;2023-12-29T08:41:21;98724.89;;;3.43;94.44
49709;BME280;35601;55.902;13.606;2023-12-29T08:43:47;98721.94;;;3.62;93.72
49709;BME280;35601;55.902;13.606;2023-12-29T08:46:12;98727.10;;;3.40;93.70
49709;BME280;35601;55.902;13.606;2023-12-29T08:48:37;98721.27;;;3.28;93.83
49709;BME280;35601;55.902;13.606;2023-12-29T08:51:03;98716.73;;;3.06;93.39
49709;BME280;35601;55.902;13.606;2023-12-29T08:53:28;98727.39;;;2.80;91.52
49709;BME280;35601;55.902;13.606;2023-12-29T08:55:53;98729.25;;;3.18;94.22
49709;BME280;35601;55.902;13.606;2023-12-29T08:58:18;98724.96;;;3.04;94.52
49709;BME280;35601;55.902;13.606;2023-12-29T09:00:44;98721.10;;;3.24;95.65
49709;BME280;35601;55.902;13.606;2023-12-29T09:03:09;98723.06;;;3.07;95.05
49709;BME280;35601;55.902;13.606;2023-12-29T09:05:35;98723.63;;;3.39;94.37
49709;BME280;35601;55.902;13.606;2023-12-29T09:08:00;98726.04;;;3.54;94.15
49709;BME280;35601;55.902;13.606;2023-12-29T09:10:25;98732.45;;;3.54;93.48
49709;BME280;35601;55.902;13.606;2023-12-29T09:12:51;98738.72;;;3.42;92.12
49709;BME280;35601;55.902;13.606;2023-12-29T09:15:16;98737.58;;;3.55;91.65
49709;BME280;35601;55.902;13.606;2023-12-29T09:17:42;98742.40;;;3.63;91.21
49709;BME280;35601;55.902;13.606;2023-12-29T09:20:08;98745.29;;;3.31;90.93
49709;BME280;35601;55.902;13.606;2023-12-29T09:22:32;98751.45;;;3.41;91.19
49709;BME280;35601;55.902;13.606;2023-12-29T09:24:57;98750.38;;;3.45;92.22
49709;BME280;35601;55.902;13.606;2023-12-29T09:27:23;98751.16;;;3.67;92.64
49709;BME280;35601;55.902;13.606;2023-12-29T09:29:49;98753.57;;;3.32;92.95
49709;BME280;35601;55.902;13.606;2023-12-29T09:32:14;98753.50;;;3.93;92.70
49709;BME280;35601;55.902;13.606;2023-12-29T09:34:39;98753.11;;;3.51;93.45
49709;BME280;35601;55.902;13.606;2023-12-29T09:37:05;98753.35;;;3.87;93.48
49709;BME280;35601;55.902;13.606;2023-12-29T09:39:30;98758.03;;;3.49;94.08
49709;BME280;35601;55.902;13.606;2023-12-29T09:41:58;98757.50;;;3.55;95.08
49709;BME280;35601;55.902;13.606;2023-12-29T09:44:21;98760.01;;;3.54;94.90
49709;BME280;35601;55.902;13.606;2023-12-29T09:46:49;98766.43;;;3.48;95.34
49709;BME280;35601;55.902;13.606;2023-12-29T09:49:12;98768.00;;;3.19;94.83
49709;BME280;35601;55.902;13.606;2023-12-29T09:51:38;98768.04;;;3.41;95.51
49709;BME280;35601;55.902;13.606;2023-12-29T09:54:03;98763.18;;;3.36;95.00
49709;BME280;35601;55.902;13.606;2023-12-29T09:56:28;98767.49;;;3.30;94.61
49709;BME280;35601;55.902;13.606;2023-12-29T09:58:54;98763.04;;;3.33;94.01
49709;BME280;35601;55.902;13.606;2023-12-29T10:01:19;98768.44;;;3.03;94.73
49709;BME280;35601;55.902;13.606;2023-12-29T10:03:44;98768.80;;;3.31;95.23
49709;BME280;35601;55.902;13.606;2023-12-29T10:06:13;98764.47;;;3.34;94.88
49709;BME280;35601;55.902;13.606;2023-12-29T10:08:37;98769.44;;;3.48;94.04
49709;BME280;35601;55.902;13.606;2023-12-29T10:11:02;98766.78;;;3.53;95.00
49709;BME280;35601;55.902;13.606;2023-12-29T10:13:26;98762.03;;;3.49;94.04
49709;BME280;35601;55.902;13.606;2023-12-29T10:15:57;98763.87;;;3.36;94.19
49709;BME280;35601;55.902;13.606;2023-12-29T10:18:26;98749.91;;;3.25;93.59
49709;BME280;35601;55.902;13.606;2023-12-29T10:20:46;98751.21;;;3.36;93.24
49709;BME280;35601;55.902;13.606;2023-12-29T10:23:10;98757.66;;;3.31;94.01
49709;BME280;35601;55.902;13.606;2023-12-29T10:25:35;98747.35;;;3.53;93.65
49709;BME280;35601;55.902;13.606;2023-12-29T10:28:00;98748.10;;;3.45;94.13
49709;BME280;35601;55.902;13.606;2023-12-29T10:30:24;98755.13;;;3.22;94.58
49709;BME280;35601;55.902;13.606;2023-12-29T10:32:51;98755.67;;;3.35;94.07
49709;BME280;35601;55.902;13.606;2023-12-29T10:35:15;98753.74;;;3.61;93.55
49709;BME280;35601;55.902;13.606;2023-12-29T10:37:41;98755.80;;;3.32;93.85
49709;BME280;35601;55.902;13.606;2023-12-29T10:40:08;98756.00;;;3.51;93.64
49709;BME280;35601;55.902;13.606;2023-12-29T10:42:32;98756.17;;;3.38;92.97
49709;BME280;35601;55.902;13.606;2023-12-29T10:45:04;98747.69;;;3.49;92.99
49709;BME280;35601;55.902;13.606;2023-12-29T10:47:24;98752.77;;;3.54;92.76
49709;BME280;35601;55.902;13.606;2023-12-29T10:49:54;98751.76;;;3.61;92.87
49709;BME280;35601;55.902;13.606;2023-12-29T10:52:15;98756.10;;;3.75;92.65
49709;BME280;35601;55.902;13.606;2023-12-29T10:54:40;98753.12;;;3.58;92.15
49709;BME280;35601;55.902;13.606;2023-12-29T10:57:05;98754.47;;;3.35;92.34
49709;BME280;35601;55.902;13.606;2023-12-29T10:59:30;98752.16;;;3.99;91.58
49709;BME280;35601;55.902;13.606;2023-12-29T11:01:56;98756.82;;;3.83;91.84
49709;BME280;35601;55.902;13.606;2023-12-29T11:04:22;98754.20;;;3.58;90.76
49709;BME280;35601;55.902;13.606;2023-12-29T11:06:46;98756.61;;;3.68;91.10
49709;BME280;35601;55.902;13.606;2023-12-29T11:09:12;98754.83;;;3.98;90.64
49709;BME280;35601;55.902;13.606;2023-12-29T11:11:38;98750.37;;;3.73;90.93
49709;BME280;35601;55.902;13.606;2023-12-29T11:14:04;98751.48;;;3.54;90.64
49709;BME280;35601;55.902;13.606;2023-12-29T11:16:30;98745.78;;;3.36;90.20
49709;BME280;35601;55.902;13.606;2023-12-29T11:18:56;98754.03;;;4.00;89.64
49709;BME280;35601;55.902;13.606;2023-12-29T11:21:22;98747.29;;;3.94;89.55
49709;BME280;35601;55.902;13.606;2023-12-29T11:23:47;98752.41;;;3.73;89.79
49709;BME280;35601;55.902;13.606;2023-12-29T11:26:12;98756.29;;;3.92;89.08
49709;BME280;35601;55.902;13.606;2023-12-29T11:28:38;98754.27;;;3.91;87.82
49709;BME280;35601;55.902;13.606;2023-12-29T11:31:03;98756.36;;;4.27;87.46
49709;BME280;35601;55.902;13.606;2023-12-29T11:33:31;98751.52;;;4.24;87.63
49709;BME280;35601;55.902;13.606;2023-12-29T11:35:56;98755.14;;;4.20;85.76
49709;BME280;35601;55.902;13.606;2023-12-29T11:38:33;98753.43;;;4.20;85.88
49709;BME280;35601;55.902;13.606;2023-12-29T11:40:50;98750.17;;;4.41;85.56
49709;BME280;35601;55.902;13.606;2023-12-29T11:43:13;98751.19;;;4.27;85.02
49709;BME280;35601;55.902;13.606;2023-12-29T11:45:36;98749.59;;;4.54;85.67
49709;BME280;35601;55.902;13.606;2023-12-29T11:48:01;98746.54;;;4.31;84.58
49709;BME280;35601;55.902;13.606;2023-12-29T11:50:28;98742.22;;;3.99;84.31
49709;BME280;35601;55.902;13.606;2023-12-29T11:52:51;98742.54;;;3.92;84.60
49709;BME280;35601;55.902;13.606;2023-12-29T11:55:17;98745.57;;;3.93;84.78
49709;BME280;35601;55.902;13.606;2023-12-29T11:57:43;98737.35;;;4.14;84.65
49709;BME280;35601;55.902;13.606;2023-12-29T12:00:09;98743.18;;;4.09;85.21
49709;BME280;35601;55.902;13.606;2023-12-29T12:02:34;98742.50;;;3.90;85.34
49709;BME280;35601;55.902;13.606;2023-12-29T12:04:59;98737.16;;;4.07;85.54
49709;BME280;35601;55.902;13.606;2023-12-29T12:09:51;98740.94;;;4.05;85.62
49709;BME280;35601;55.902;13.606;2023-12-29T12:14:45;98737.70;;;4.17;84.81
49709;BME280;35601;55.902;13.606;2023-12-29T12:17:08;98740.25;;;4.27;84.30
49709;BME280;35601;55.902;13.606;2023-12-29T12:19:33;98740.89;;;4.06;83.49
49709;BME280;35601;55.902;13.606;2023-12-29T12:21:59;98733.00;;;4.07;83.34
49709;BME280;35601;55.902;13.606;2023-12-29T12:24:23;98737.29;;;4.08;83.27
49709;BME280;35601;55.902;13.606;2023-12-29T12:26:49;98740.70;;;4.28;82.91
49709;BME280;35601;55.902;13.606;2023-12-29T12:29:14;98745.15;;;3.81;83.55
49709;BME280;35601;55.902;13.606;2023-12-29T12:31:52;98741.07;;;3.66;84.31
49709;BME280;35601;55.902;13.606;2023-12-29T12:34:05;98747.91;;;3.89;85.15
49709;BME280;35601;55.902;13.606;2023-12-29T12:36:30;98753.19;;;3.84;84.87
49709;BME280;35601;55.902;13.606;2023-12-29T12:38:57;98756.45;;;3.85;84.85
49709;BME280;35601;55.902;13.606;2023-12-29T12:41:21;98754.55;;;3.99;84.38
49709;BME280;35601;55.902;13.606;2023-12-29T12:43:54;98750.52;;;3.78;84.74
49709;BME280;35601;55.902;13.606;2023-12-29T12:46:13;98749.80;;;3.90;85.82
49709;BME280;35601;55.902;13.606;2023-12-29T12:48:43;98751.77;;;3.61;85.80
49709;BME280;35601;55.902;13.606;2023-12-29T12:51:04;98747.07;;;3.57;86.20